This is the latest recevied weather packets stored in our database for station/object VK5TRM-13. If no packets are shown the sender has not sent any weather packets the latest 10 day(s).
| Time | Temp. | Humidity | Pressure | Rain* | Wind** | Luminosity | Snow |
|---|---|---|---|---|---|---|---|
| 1777475705 | 11.11° C | 68% | 1024.2 hPa | 0 mm | - | - | - |
| 1777474804 | 11.67° C | 68% | 1024.3 hPa | 0 mm | - | - | - |
| 1777473904 | 11.67° C | 68% | 1024.3 hPa | 0 mm | - | - | - |
| 1777473004 | 12.78° C | 61% | 1024.3 hPa | 0 mm | - | - | - |
| 1777472104 | 12.78° C | 61% | 1024.3 hPa | 0 mm | - | - | - |
| 1777471204 | 16.11° C | 50% | 1024.5 hPa | 0 mm | - | - | - |
| 1777470304 | 16.11° C | 50% | 1024.5 hPa | 0 mm | - | - | - |
| 1777469404 | 14.44° C | 53% | 1024.5 hPa | 0 mm | - | - | - |
| 1777468504 | 14.44° C | 53% | 1024.5 hPa | 0 mm | - | - | - |
| 1777467604 | 14.44° C | 55% | 1024.7 hPa | 0 mm | - | - | - |
| 1777466705 | 14.44° C | 55% | 1024.7 hPa | 0 mm | - | - | - |
| 1777465805 | 14.44° C | 53% | 1024.8 hPa | 0 mm | - | - | - |
| 1777464905 | 14.44° C | 53% | 1024.8 hPa | 0 mm | - | - | - |
| 1777464004 | 13.33° C | 56% | 1024.7 hPa | 0 mm | - | - | - |
| 1777463104 | 13.33° C | 56% | 1024.7 hPa | 0 mm | - | - | - |
| 1777462204 | 13.89° C | 55% | 1024.7 hPa | 0 mm | - | - | - |
| 1777461304 | 13.89° C | 55% | 1024.7 hPa | 0 mm | - | - | - |
| 1777460405 | 13.89° C | 59% | 1024.4 hPa | 0 mm | - | - | - |
| 1777459505 | 13.89° C | 59% | 1024.4 hPa | 0 mm | - | - | - |
| 1777458605 | 13.89° C | 63% | 1024.4 hPa | 0 mm | - | - | - |
| 1777457705 | 13.89° C | 63% | 1024.4 hPa | 0 mm | - | - | - |
| 1777456804 | 14.44° C | 60% | 1024.3 hPa | 0 mm | - | - | - |
| 1777455904 | 14.44° C | 60% | 1024.3 hPa | 0 mm | - | - | - |
| 1777455004 | 16.67° C | 55% | 1024.1 hPa | 0 mm | - | - | - |
| 1777454104 | 16.67° C | 55% | 1024.1 hPa | 0 mm | - | - | - |
* Rain since midnight (hover to see other rain measurements)
** Current wind speed in m/s (hover to see current wind gust speed)